createdAt,value
2022-08-09T00:00:12.031Z,1.90
2022-08-09T00:00:24.175Z,1.85
2022-08-09T00:00:44.634Z,1.83
2022-08-09T00:00:58.243Z,2.10
2022-08-09T00:01:15.572Z,2.05
2022-08-09T00:01:48.323Z,1.73
2022-08-09T00:02:00.578Z,2.00
2022-08-09T00:02:12.597Z,1.83
2022-08-09T00:02:26.546Z,1.67
2022-08-09T00:02:48.986Z,1.77
2022-08-09T00:03:01.600Z,1.70
2022-08-09T00:04:05.620Z,1.60
2022-08-09T00:04:24.827Z,1.65
2022-08-09T00:04:36.463Z,1.80
2022-08-09T00:05:03.508Z,1.80
2022-08-09T00:06:18.563Z,1.90
2022-08-09T00:06:18.957Z,1.67
2022-08-09T00:06:25.556Z,1.65
2022-08-09T00:06:38.129Z,1.80
2022-08-09T00:06:56.163Z,2.00
2022-08-09T00:07:10.711Z,1.90
2022-08-09T00:07:23.024Z,1.63
2022-08-09T00:07:44.471Z,1.52
2022-08-09T00:07:57.194Z,1.55
2022-08-09T00:08:32.486Z,1.48
2022-08-09T00:08:48.379Z,1.70
2022-08-09T00:09:01.906Z,1.80
2022-08-09T00:09:17.829Z,2.00
2022-08-09T00:09:33.015Z,1.77
2022-08-09T00:09:45.538Z,1.58
2022-08-09T00:09:57.529Z,1.50
2022-08-09T00:10:18.202Z,1.48
2022-08-09T00:10:33.287Z,1.40
2022-08-09T00:10:47.643Z,1.30
2022-08-09T00:11:00.704Z,1.27
2022-08-09T00:11:25.033Z,1.50
2022-08-09T00:12:03.756Z,1.30
2022-08-09T00:12:22.479Z,1.40
2022-08-09T00:12:34.933Z,1.30
2022-08-09T00:12:46.900Z,1.40
2022-08-09T00:13:03.803Z,1.50
2022-08-09T00:13:18.123Z,1.40
2022-08-09T00:13:31.569Z,1.30
2022-08-09T00:13:44.583Z,1.40
2022-08-09T00:13:58.488Z,1.45
2022-08-09T00:14:11.361Z,1.33
2022-08-09T00:14:36.222Z,1.38
2022-08-09T00:14:48.874Z,1.50
2022-08-09T00:15:07.145Z,1.40
2022-08-09T00:15:35.596Z,1.30
2022-08-09T00:16:02.109Z,1.33
2022-08-09T00:16:14.935Z,1.40
2022-08-09T00:16:38.481Z,1.20
2022-08-09T00:16:50.542Z,1.20
2022-08-09T00:17:03.649Z,1.30
2022-08-09T00:18:05.558Z,1.40
2022-08-09T00:18:09.578Z,1.20
2022-08-09T00:18:19.473Z,1.30
2022-08-09T00:18:35.522Z,1.25
2022-08-09T00:18:49.273Z,1.30
2022-08-09T00:19:01.819Z,1.20
2022-08-09T00:19:15.251Z,1.23
2022-08-09T00:19:30.641Z,1.30
2022-08-09T00:19:48.023Z,1.27
2022-08-09T00:20:00.129Z,1.17
2022-08-09T00:20:12.246Z,1.13
2022-08-09T00:20:24.258Z,1.25
2022-08-09T00:20:36.263Z,1.20
2022-08-09T00:20:50.351Z,1.17
2022-08-09T00:21:04.915Z,1.20
2022-08-09T00:21:17.128Z,1.20
2022-08-09T00:21:29.170Z,1.23
2022-08-09T00:21:55.502Z,1.23
2022-08-09T00:22:08.918Z,1.30
2022-08-09T00:22:23.363Z,1.20
2022-08-09T00:22:36.290Z,1.20
2022-08-09T00:22:48.462Z,1.20
2022-08-09T00:23:54.024Z,1.20
2022-08-09T00:23:58.182Z,1.23
2022-08-09T00:24:05.335Z,1.30
2022-08-09T00:24:17.263Z,1.27
2022-08-09T00:24:32.653Z,1.30
2022-08-09T00:24:44.629Z,1.30
2022-08-09T00:24:59.278Z,1.30
2022-08-09T00:25:12.662Z,1.30
2022-08-09T00:25:32.801Z,1.30
2022-08-09T00:25:45.047Z,1.20
2022-08-09T00:26:05.598Z,1.20
2022-08-09T00:26:17.561Z,1.20
2022-08-09T00:26:33.033Z,1.10
2022-08-09T00:26:45.424Z,1.00
2022-08-09T00:26:59.867Z,1.10
2022-08-09T00:27:11.954Z,1.20
2022-08-09T00:27:23.907Z,1.20
2022-08-09T00:27:43.279Z,1.10
2022-08-09T00:27:55.363Z,1.00
2022-08-09T00:28:07.390Z,1.17
2022-08-09T00:28:22.902Z,1.20
2022-08-09T00:28:39.544Z,1.15
2022-08-09T00:28:52.564Z,1.20
2022-08-09T00:29:12.232Z,1.30
2022-08-09T00:29:39.813Z,1.30
2022-08-09T00:30:25.541Z,1.10
2022-08-09T00:30:38.903Z,1.20
2022-08-09T00:30:53.025Z,1.20
2022-08-09T00:31:30.562Z,1.23
2022-08-09T00:31:58.320Z,1.13
2022-08-09T00:32:12.749Z,1.15
2022-08-09T00:32:26.781Z,1.30
2022-08-09T00:32:39.839Z,1.45
2022-08-09T00:32:52.163Z,1.67
2022-08-09T00:33:04.177Z,1.60
2022-08-09T00:33:16.798Z,1.50
2022-08-09T00:33:32.528Z,1.20
2022-08-09T00:33:50.385Z,1.10
2022-08-09T00:34:03.527Z,1.20
2022-08-09T00:34:15.610Z,1.20
2022-08-09T00:34:32.549Z,1.20
2022-08-09T00:34:46.273Z,1.20
2022-08-09T00:35:04.542Z,1.20
2022-08-09T00:35:16.489Z,1.20
2022-08-09T00:35:29.683Z,1.20
2022-08-09T00:35:55.883Z,1.23
2022-08-09T00:36:07.955Z,1.20
2022-08-09T00:36:22.215Z,1.10
2022-08-09T00:36:41.660Z,1.20
2022-08-09T00:36:53.827Z,1.17
2022-08-09T00:37:05.802Z,1.20
2022-08-09T00:37:18.962Z,1.15
2022-08-09T00:37:32.486Z,1.10
2022-08-09T00:37:44.698Z,1.17
2022-08-09T00:37:57.754Z,1.17
2022-08-09T00:38:12.445Z,1.20
2022-08-09T00:38:24.407Z,1.30
2022-08-09T00:38:37.713Z,1.17
2022-08-09T00:38:51.250Z,1.13
2022-08-09T00:39:04.754Z,1.13
2022-08-09T00:40:09.522Z,1.13
2022-08-09T00:40:13.534Z,1.20
2022-08-09T00:40:22.379Z,1.40
2022-08-09T00:40:52.579Z,1.25
2022-08-09T00:41:08.321Z,1.10
2022-08-09T00:44:11.190Z,1.27
2022-08-09T00:44:11.352Z,1.23
2022-08-09T00:44:11.499Z,1.20
2022-08-09T00:44:12.945Z,1.20
2022-08-09T00:44:13.636Z,1.20
2022-08-09T00:44:14.158Z,1.00
2022-08-09T00:44:37.510Z,1.00
2022-08-09T00:44:49.603Z,1.00
2022-08-09T00:45:03.800Z,1.10
2022-08-09T00:45:28.240Z,1.08
2022-08-09T00:45:50.469Z,1.10
2022-08-09T00:46:08.397Z,1.05
2022-08-09T00:46:41.181Z,1.10
2022-08-09T00:47:01.807Z,1.10
2022-08-09T00:47:17.201Z,1.13
2022-08-09T00:47:33.176Z,1.08
2022-08-09T00:47:51.585Z,1.00
2022-08-09T00:48:05.568Z,1.10
2022-08-09T00:48:19.430Z,1.13
2022-08-09T00:48:32.145Z,1.20
2022-08-09T00:48:47.605Z,1.20
2022-08-09T00:49:01.531Z,1.10
2022-08-09T00:49:16.029Z,1.08
2022-08-09T00:49:31.075Z,1.17
2022-08-09T00:49:52.431Z,1.20
2022-08-09T00:50:05.148Z,1.17
2022-08-09T00:50:17.237Z,1.20
2022-08-09T00:50:29.204Z,1.27
2022-08-09T00:50:41.304Z,1.27
2022-08-09T00:50:56.237Z,1.20
2022-08-09T00:51:10.250Z,1.17
2022-08-09T00:51:25.041Z,1.30
2022-08-09T00:51:54.297Z,1.20
2022-08-09T00:52:15.944Z,1.35
2022-08-09T00:52:31.119Z,1.00
2022-08-09T00:52:43.480Z,1.00
2022-08-09T00:52:55.546Z,1.02
2022-08-09T00:53:10.418Z,1.25
2022-08-09T00:53:24.473Z,1.85
2022-08-09T00:53:36.883Z,1.90
2022-08-09T00:53:51.804Z,1.30
2022-08-09T00:54:04.629Z,1.20
2022-08-09T00:54:16.878Z,1.13
2022-08-09T00:54:31.655Z,1.10
2022-08-09T00:54:49.255Z,1.13
2022-08-09T00:55:02.227Z,1.10
2022-08-09T00:55:32.880Z,1.15
2022-08-09T00:56:05.226Z,1.02
2022-08-09T00:56:18.651Z,1.00
2022-08-09T00:56:30.764Z,1.00
2022-08-09T00:56:42.803Z,1.30
2022-08-09T00:56:55.185Z,1.23
2022-08-09T00:57:10.221Z,1.08
2022-08-09T00:57:24.672Z,1.23
2022-08-09T00:57:49.804Z,1.20
2022-08-09T00:58:01.870Z,1.05
2022-08-09T00:58:25.474Z,1.08
2022-08-09T00:58:39.693Z,1.15
2022-08-09T00:58:51.985Z,1.20
2022-08-09T00:59:05.095Z,1.20
2022-08-09T00:59:40.297Z,1.25
2022-08-09T00:59:52.538Z,1.10
2022-08-09T01:00:21.589Z,1.05
2022-08-09T01:00:39.450Z,1.20
2022-08-09T01:00:58.917Z,1.10
2022-08-09T01:01:20.682Z,1.10
2022-08-09T01:01:44.329Z,1.15
2022-08-09T01:02:00.671Z,1.25
2022-08-09T01:02:19.355Z,1.02
2022-08-09T01:02:33.946Z,1.00
2022-08-09T01:02:48.948Z,1.13
2022-08-09T01:03:16.700Z,1.13
2022-08-09T01:04:06.644Z,1.15
2022-08-09T01:04:30.283Z,1.08
2022-08-09T01:05:14.385Z,1.13
2022-08-09T01:05:53.447Z,1.08
2022-08-09T01:06:18.926Z,1.10
2022-08-09T01:06:54.244Z,1.20
2022-08-09T01:08:00.829Z,1.20
2022-08-09T01:08:49.419Z,1.30
2022-08-09T01:09:16.592Z,1.10
2022-08-09T01:09:47.546Z,1.15
2022-08-09T01:10:04.012Z,1.08
2022-08-09T01:10:35.106Z,1.23
2022-08-09T01:10:58.559Z,1.20
2022-08-09T01:11:23.918Z,1.25
2022-08-09T01:11:55.874Z,1.40
2022-08-09T01:12:23.968Z,1.30
2022-08-09T01:12:47.538Z,1.30
2022-08-09T01:13:19.302Z,1.13
2022-08-09T01:13:59.296Z,1.20
2022-08-09T01:14:23.787Z,1.10
2022-08-09T01:14:45.091Z,1.17
2022-08-09T01:15:10.061Z,1.10
2022-08-09T01:15:37.254Z,1.10
2022-08-09T01:15:56.453Z,1.08
2022-08-09T01:16:12.938Z,1.20
2022-08-09T01:16:30.031Z,1.20
2022-08-09T01:16:47.442Z,1.17
2022-08-09T01:17:09.022Z,1.02
2022-08-09T01:17:34.143Z,1.15
2022-08-09T01:18:10.604Z,1.17
2022-08-09T01:18:31.344Z,1.20
2022-08-09T01:18:47.453Z,1.30
2022-08-09T01:19:16.916Z,1.15
2022-08-09T01:20:01.587Z,1.10
2022-08-09T01:20:24.802Z,1.30
2022-08-09T01:20:38.937Z,1.00
2022-08-09T01:21:12.021Z,1.10
2022-08-09T01:21:45.180Z,1.20
2022-08-09T01:22:12.534Z,1.10
2022-08-09T01:22:51.288Z,1.13
2022-08-09T01:24:02.838Z,1.30
2022-08-09T01:24:32.906Z,1.20
2022-08-09T01:24:52.262Z,1.10
2022-08-09T01:25:33.246Z,1.10
2022-08-09T01:26:14.232Z,1.05
2022-08-09T01:27:04.074Z,1.20
2022-08-09T01:27:23.888Z,1.20
2022-08-09T01:27:38.868Z,1.17
2022-08-09T01:27:57.011Z,1.17
2022-08-09T01:28:11.543Z,1.10
2022-08-09T01:28:26.009Z,1.05
2022-08-09T01:28:44.172Z,1.10
2022-08-09T01:29:01.323Z,1.10
2022-08-09T01:29:15.906Z,1.05
2022-08-09T01:29:41.150Z,1.00
2022-08-09T01:30:08.296Z,1.10
2022-08-09T01:30:51.478Z,1.40
2022-08-09T01:31:11.132Z,1.50
2022-08-09T01:32:30.002Z,1.10
2022-08-09T01:32:31.528Z,1.30
2022-08-09T01:32:49.010Z,1.10
2022-08-09T01:33:02.397Z,1.02
2022-08-09T01:33:16.846Z,1.10
2022-08-09T01:33:36.968Z,1.15
2022-08-09T01:33:50.634Z,1.10
2022-08-09T01:34:06.228Z,1.00
2022-08-09T01:34:22.516Z,1.20
2022-08-09T01:34:35.515Z,1.20
2022-08-09T01:34:53.708Z,1.10
2022-08-09T01:35:37.291Z,1.15
2022-08-09T01:36:13.606Z,1.20
2022-08-09T01:36:27.726Z,1.20
2022-08-09T01:36:42.016Z,1.30
2022-08-09T01:36:57.869Z,1.33
2022-08-09T01:37:14.952Z,1.20
2022-08-09T01:37:43.202Z,1.10
2022-08-09T01:38:14.917Z,1.20
2022-08-09T01:38:29.968Z,1.30
2022-08-09T01:38:46.935Z,1.20
2022-08-09T01:39:01.642Z,1.27
2022-08-09T01:39:16.470Z,1.45
2022-08-09T01:39:31.043Z,1.33
2022-08-09T01:39:50.401Z,1.20
2022-08-09T01:40:04.588Z,1.10
2022-08-09T01:40:22.954Z,1.20
2022-08-09T01:40:38.080Z,1.35
2022-08-09T01:41:05.298Z,1.20
2022-08-09T01:41:26.845Z,1.20
2022-08-09T01:41:59.917Z,1.25
2022-08-09T01:42:13.831Z,1.20
2022-08-09T01:42:26.967Z,1.30
2022-08-09T01:42:42.282Z,1.20
2022-08-09T01:42:56.678Z,1.20
2022-08-09T01:43:09.950Z,1.27
2022-08-09T01:43:24.263Z,1.30
2022-08-09T01:43:51.052Z,1.20
2022-08-09T01:44:05.526Z,1.25
2022-08-09T01:44:20.907Z,1.20
2022-08-09T01:44:34.422Z,1.20
2022-08-09T01:44:48.584Z,1.20
2022-08-09T01:45:02.420Z,1.20
2022-08-09T01:45:18.515Z,1.17
2022-08-09T01:45:31.734Z,1.10
2022-08-09T01:45:47.748Z,1.10
2022-08-09T01:46:00.603Z,1.20
2022-08-09T01:46:18.216Z,1.10
2022-08-09T01:46:47.022Z,1.10
2022-08-09T01:47:01.476Z,1.10
2022-08-09T01:47:14.941Z,1.20
2022-08-09T01:47:31.506Z,1.33
2022-08-09T01:47:45.876Z,1.42
2022-08-09T01:48:06.050Z,1.33
2022-08-09T01:48:20.036Z,1.20
2022-08-09T01:48:42.883Z,1.30
2022-08-09T01:48:59.800Z,1.17
2022-08-09T01:49:23.969Z,1.10
2022-08-09T01:49:39.014Z,1.30
2022-08-09T01:49:54.677Z,1.27
2022-08-09T01:50:08.405Z,1.10
2022-08-09T01:50:25.494Z,1.10
2022-08-09T01:50:54.933Z,1.30
2022-08-09T01:51:09.919Z,1.30
2022-08-09T01:51:23.214Z,1.10
2022-08-09T01:51:53.539Z,1.15
2022-08-09T01:52:14.713Z,1.40
2022-08-09T01:52:27.685Z,1.25
2022-08-09T01:52:43.526Z,1.30
2022-08-09T01:52:56.521Z,1.30
2022-08-09T01:53:19.304Z,1.30
2022-08-09T01:53:41.081Z,1.08
2022-08-09T01:53:57.783Z,1.17
2022-08-09T01:54:10.734Z,1.10
2022-08-09T01:54:56.348Z,1.10
2022-08-09T01:55:10.591Z,1.20
2022-08-09T01:55:25.940Z,1.13
2022-08-09T01:55:38.898Z,1.20
2022-08-09T01:55:54.130Z,1.20
2022-08-09T01:56:09.518Z,1.20
2022-08-09T01:56:23.495Z,1.30
2022-08-09T01:56:40.194Z,1.30
2022-08-09T01:56:55.976Z,1.10
2022-08-09T01:57:16.261Z,1.20
2022-08-09T01:57:45.743Z,1.17
2022-08-09T01:58:00.241Z,1.10
2022-08-09T01:58:13.853Z,1.15
2022-08-09T01:58:28.619Z,1.20
2022-08-09T01:58:44.371Z,1.15
2022-08-09T01:59:06.232Z,1.25
2022-08-09T01:59:20.079Z,1.20
2022-08-09T01:59:32.752Z,1.30
2022-08-09T01:59:59.859Z,1.30
2022-08-09T02:00:35.063Z,1.10
2022-08-09T02:00:50.665Z,1.30
2022-08-09T02:01:03.930Z,1.20
2022-08-09T02:01:18.474Z,1.20
2022-08-09T02:02:00.054Z,1.02
2022-08-09T02:02:05.861Z,1.60
2022-08-09T02:02:22.975Z,1.70
2022-08-09T02:02:47.187Z,1.40
2022-08-09T02:03:00.213Z,1.25
2022-08-09T02:03:15.640Z,1.20
2022-08-09T02:03:31.143Z,1.30
2022-08-09T02:03:44.603Z,1.30
2022-08-09T02:03:59.820Z,1.30
2022-08-09T02:04:14.608Z,1.20
2022-08-09T02:04:27.941Z,1.25
2022-08-09T02:04:45.496Z,1.30
2022-08-09T02:05:04.715Z,1.20
2022-08-09T02:05:21.615Z,1.30
2022-08-09T02:06:03.710Z,1.30
2022-08-09T02:06:45.506Z,1.20
2022-08-09T02:07:17.838Z,1.20
2022-08-09T02:08:35.321Z,1.20
2022-08-09T02:08:39.538Z,1.30
2022-08-09T02:08:58.923Z,1.60
2022-08-09T02:09:14.632Z,1.13
2022-08-09T02:09:41.956Z,1.30
2022-08-09T02:10:01.406Z,1.45
2022-08-09T02:10:19.831Z,1.25
2022-08-09T02:10:50.973Z,1.23
2022-08-09T02:11:17.206Z,1.10
2022-08-09T02:11:42.014Z,1.20
2022-08-09T02:11:57.013Z,1.30
2022-08-09T02:12:11.378Z,1.30
2022-08-09T02:12:32.641Z,1.20
2022-08-09T02:12:46.670Z,1.20
2022-08-09T02:13:05.011Z,1.20
2022-08-09T02:13:21.973Z,1.20
2022-08-09T02:13:40.449Z,1.40
2022-08-09T02:14:06.186Z,1.33
2022-08-09T02:14:26.197Z,1.10
2022-08-09T02:14:42.060Z,1.30
2022-08-09T02:14:55.769Z,1.70
2022-08-09T02:15:11.770Z,1.77
2022-08-09T02:15:48.675Z,1.20
2022-08-09T02:16:03.768Z,1.30
2022-08-09T02:16:17.055Z,1.30
2022-08-09T02:16:53.083Z,1.38
2022-08-09T02:17:59.183Z,1.40
2022-08-09T02:18:01.498Z,1.20
2022-08-09T02:18:23.844Z,1.30
2022-08-09T02:18:36.667Z,1.30
2022-08-09T02:18:49.051Z,1.20
2022-08-09T02:19:02.555Z,1.40
2022-08-09T02:19:17.647Z,1.50
2022-08-09T02:19:38.491Z,1.40
2022-08-09T02:19:51.279Z,1.20
2022-08-09T02:20:04.641Z,1.17
2022-08-09T02:20:26.208Z,1.10
2022-08-09T02:20:43.543Z,1.30
2022-08-09T02:21:00.152Z,1.20
2022-08-09T02:21:22.143Z,1.30
2022-08-09T02:21:41.622Z,1.42
2022-08-09T02:21:58.042Z,1.20
2022-08-09T02:22:17.067Z,1.10
2022-08-09T02:22:35.950Z,1.30
2022-08-09T02:23:16.940Z,1.20
2022-08-09T02:23:43.204Z,1.20
2022-08-09T02:23:59.958Z,1.30
2022-08-09T02:24:26.438Z,1.30
2022-08-09T02:24:41.279Z,1.40
2022-08-09T02:24:55.856Z,1.23
2022-08-09T02:25:17.117Z,1.35
2022-08-09T02:25:41.866Z,1.30
2022-08-09T02:25:57.769Z,1.20
2022-08-09T02:26:27.313Z,1.20
2022-08-09T02:26:42.747Z,1.25
2022-08-09T02:26:58.645Z,1.30
2022-08-09T02:27:14.102Z,1.20
2022-08-09T02:27:57.343Z,1.33
2022-08-09T02:28:28.100Z,1.20
2022-08-09T02:29:02.027Z,1.27
2022-08-09T02:29:20.667Z,1.10
2022-08-09T02:29:39.112Z,1.30
2022-08-09T02:29:55.759Z,1.45
2022-08-09T02:30:09.506Z,1.30
2022-08-09T02:30:22.691Z,1.25
2022-08-09T02:30:46.420Z,1.20
2022-08-09T02:31:23.191Z,1.20
2022-08-09T02:31:40.733Z,1.20
2022-08-09T02:31:58.162Z,1.20
2022-08-09T02:32:11.803Z,1.15
2022-08-09T02:32:26.609Z,1.27
2022-08-09T02:32:44.728Z,1.33
2022-08-09T02:32:59.928Z,1.30
2022-08-09T02:33:17.031Z,1.20
2022-08-09T02:33:58.099Z,1.20
2022-08-09T02:34:13.258Z,1.15
2022-08-09T02:34:41.687Z,1.23
2022-08-09T02:35:17.515Z,1.27
2022-08-09T02:36:02.099Z,1.30
2022-08-09T02:36:10.529Z,1.35
2022-08-09T02:36:37.919Z,1.30
2022-08-09T02:36:54.347Z,1.40
2022-08-09T02:37:12.141Z,1.40
2022-08-09T02:37:31.456Z,1.33
2022-08-09T02:37:47.568Z,1.20
2022-08-09T02:38:02.903Z,1.60
2022-08-09T02:38:22.002Z,1.60
2022-08-09T02:39:03.685Z,1.20
2022-08-09T02:39:33.712Z,1.02
2022-08-09T02:40:01.699Z,1.40
2022-08-09T02:40:24.737Z,1.20
2022-08-09T02:40:41.111Z,1.40
2022-08-09T02:40:56.371Z,1.30
2022-08-09T02:41:13.287Z,1.40
2022-08-09T02:41:41.721Z,1.33
2022-08-09T02:41:58.580Z,1.30
2022-08-09T02:42:17.959Z,1.30
2022-08-09T02:42:42.859Z,1.30
2022-08-09T02:43:00.094Z,1.30
2022-08-09T02:43:12.978Z,1.20
2022-08-09T02:43:29.074Z,1.20
2022-08-09T02:43:54.567Z,1.20
2022-08-09T02:44:30.142Z,1.30
2022-08-09T02:44:47.092Z,1.30
2022-08-09T02:45:13.451Z,1.30
2022-08-09T02:45:33.954Z,1.40
2022-08-09T02:45:49.528Z,1.20
2022-08-09T02:46:02.035Z,1.17
2022-08-09T02:46:17.035Z,1.52
2022-08-09T02:46:30.787Z,1.60
2022-08-09T02:46:44.899Z,1.50
2022-08-09T02:46:58.366Z,1.58
2022-08-09T02:47:13.424Z,1.40
2022-08-09T02:47:28.585Z,1.38
2022-08-09T02:47:58.911Z,1.20
2022-08-09T02:48:29.727Z,1.23
2022-08-09T02:48:46.320Z,1.50
2022-08-09T02:49:02.977Z,1.63
2022-08-09T02:49:17.783Z,1.30
2022-08-09T02:49:38.736Z,1.20
2022-08-09T02:50:09.706Z,1.20
2022-08-09T02:50:29.119Z,1.33
2022-08-09T02:50:53.109Z,1.30
2022-08-09T02:51:11.579Z,1.38
2022-08-09T02:51:33.002Z,1.20
2022-08-09T02:51:57.256Z,1.30
2022-08-09T02:52:15.015Z,1.30
2022-08-09T02:52:35.217Z,1.40
2022-08-09T02:52:55.463Z,1.38
2022-08-09T02:53:25.992Z,1.30
2022-08-09T02:53:52.986Z,1.20
2022-08-09T02:54:16.590Z,1.35
2022-08-09T02:54:32.585Z,1.40
2022-08-09T02:54:54.536Z,1.33
2022-08-09T02:55:20.028Z,1.23
2022-08-09T02:55:46.361Z,1.50
2022-08-09T02:56:08.955Z,1.40
2022-08-09T02:56:23.845Z,1.33
2022-08-09T02:56:48.680Z,1.30
2022-08-09T02:57:14.033Z,1.30
2022-08-09T02:57:40.324Z,1.33
2022-08-09T02:58:36.944Z,1.30
2022-08-09T02:58:45.650Z,1.30
2022-08-09T02:59:00.920Z,1.23
2022-08-09T02:59:26.163Z,1.30
2022-08-09T03:00:11.452Z,1.30
2022-08-09T03:00:25.970Z,1.30
2022-08-09T03:00:58.297Z,1.35
2022-08-09T03:01:21.644Z,1.40
2022-08-09T03:01:42.797Z,1.30
2022-08-09T03:02:17.243Z,1.30
2022-08-09T03:02:30.979Z,1.23
2022-08-09T03:02:59.827Z,1.27
2022-08-09T03:03:13.778Z,1.33
2022-08-09T03:04:13.057Z,1.40
2022-08-09T03:04:17.660Z,1.38
2022-08-09T03:04:33.667Z,1.45
2022-08-09T03:04:50.867Z,1.30
2022-08-09T03:05:05.692Z,1.27
2022-08-09T03:05:19.407Z,1.30
2022-08-09T03:05:34.531Z,1.30
2022-08-09T03:05:49.365Z,1.30
2022-08-09T03:06:14.474Z,1.48
2022-08-09T03:06:27.935Z,1.50
2022-08-09T03:06:42.751Z,1.40
2022-08-09T03:07:14.299Z,1.33
2022-08-09T03:07:27.718Z,1.33
2022-08-09T03:07:41.197Z,1.35
2022-08-09T03:08:09.421Z,1.30
2022-08-09T03:08:23.331Z,1.25
2022-08-09T03:08:37.649Z,1.30
2022-08-09T03:08:51.555Z,1.27
2022-08-09T03:09:05.799Z,1.25
2022-08-09T03:09:20.186Z,1.27
2022-08-09T03:09:33.660Z,1.30
2022-08-09T03:09:54.283Z,1.40
2022-08-09T03:10:09.684Z,1.48
2022-08-09T03:10:24.014Z,1.60
2022-08-09T03:10:37.348Z,1.42
2022-08-09T03:10:51.081Z,1.38
2022-08-09T03:11:04.286Z,1.25
2022-08-09T03:12:04.348Z,1.30
2022-08-09T03:12:08.466Z,1.20
2022-08-09T03:12:25.940Z,1.30
2022-08-09T03:12:39.714Z,1.27
2022-08-09T03:12:53.075Z,1.30
2022-08-09T03:13:08.243Z,1.30
2022-08-09T03:13:23.819Z,1.33
2022-08-09T03:13:44.001Z,1.30
2022-08-09T03:14:10.348Z,1.42
2022-08-09T03:14:28.270Z,1.45
2022-08-09T03:14:41.483Z,1.30
2022-08-09T03:14:56.907Z,1.38
2022-08-09T03:15:10.313Z,1.40
2022-08-09T03:15:25.113Z,1.40
2022-08-09T03:16:06.634Z,1.25
2022-08-09T03:16:19.335Z,1.40
2022-08-09T03:16:33.731Z,1.50
2022-08-09T03:16:49.832Z,1.30
2022-08-09T03:17:02.724Z,1.30
2022-08-09T03:17:20.471Z,1.40
2022-08-09T03:17:39.859Z,1.50
2022-08-09T03:17:58.798Z,1.40
2022-08-09T03:18:11.519Z,1.30
2022-08-09T03:18:30.529Z,1.30
2022-08-09T03:18:43.814Z,1.20
2022-08-09T03:19:01.837Z,1.30
2022-08-09T03:19:52.208Z,1.40
2022-08-09T03:19:59.312Z,1.40
2022-08-09T03:20:18.450Z,1.27
2022-08-09T03:20:37.874Z,1.40
2022-08-09T03:20:52.201Z,1.40
2022-08-09T03:21:06.278Z,1.38
2022-08-09T03:21:20.917Z,1.40
2022-08-09T03:21:39.755Z,1.50
2022-08-09T03:21:52.627Z,1.80
2022-08-09T03:22:12.266Z,1.80
2022-08-09T03:22:44.483Z,1.30
2022-08-09T03:22:58.383Z,1.30
2022-08-09T03:23:25.679Z,1.50
2022-08-09T03:23:38.339Z,1.70
2022-08-09T03:24:04.275Z,1.60
2022-08-09T03:24:42.653Z,1.50
2022-08-09T03:24:52.214Z,1.40
2022-08-09T03:25:21.461Z,1.42
2022-08-09T03:25:58.015Z,1.70
2022-08-09T03:26:10.346Z,1.38
2022-08-09T03:26:24.760Z,1.30
2022-08-09T03:26:48.032Z,1.33
2022-08-09T03:27:09.085Z,1.40
2022-08-09T03:27:22.493Z,1.50
2022-08-09T03:27:44.824Z,1.33
2022-08-09T03:28:00.867Z,1.10
2022-08-09T03:28:14.145Z,1.30
2022-08-09T03:28:30.840Z,1.50
2022-08-09T03:28:44.169Z,1.50
2022-08-09T03:28:59.140Z,1.50
2022-08-09T03:29:13.566Z,1.55
2022-08-09T03:29:57.096Z,1.30
2022-08-09T03:30:10.153Z,1.30
2022-08-09T03:30:33.508Z,1.40
2022-08-09T03:30:48.998Z,1.48
2022-08-09T03:31:10.463Z,1.50
2022-08-09T03:31:42.371Z,1.40
2022-08-09T03:32:09.887Z,1.30
2022-08-09T03:32:22.042Z,1.35
2022-08-09T03:32:36.967Z,1.40
2022-08-09T03:32:51.439Z,1.50
2022-08-09T03:33:17.518Z,1.45
2022-08-09T03:33:53.607Z,1.48
2022-08-09T03:34:05.579Z,1.27
2022-08-09T03:34:18.612Z,1.40
2022-08-09T03:34:31.210Z,1.30
2022-08-09T03:34:44.059Z,1.27
2022-08-09T03:35:00.592Z,1.42
2022-08-09T03:35:15.010Z,1.60
2022-08-09T03:36:13.715Z,1.30
2022-08-09T03:36:13.844Z,1.40
2022-08-09T03:36:28.694Z,1.52
2022-08-09T03:36:40.637Z,1.77
2022-08-09T03:37:10.540Z,1.58
2022-08-09T03:37:55.520Z,1.45
2022-08-09T03:38:04.711Z,1.40
2022-08-09T03:38:28.960Z,1.48
2022-08-09T03:38:44.467Z,1.60
2022-08-09T03:38:57.216Z,1.50
2022-08-09T03:39:09.252Z,1.42
2022-08-09T03:39:28.724Z,1.40
2022-08-09T03:39:55.388Z,1.40
2022-08-09T03:40:09.303Z,1.33
2022-08-09T03:40:25.722Z,1.40
2022-08-09T03:40:43.110Z,1.40
2022-08-09T03:40:55.054Z,1.40
2022-08-09T03:41:07.025Z,1.48
2022-08-09T03:41:21.303Z,1.40
2022-08-09T03:41:46.073Z,1.50
2022-08-09T03:42:05.950Z,1.40
2022-08-09T03:42:19.285Z,1.42
2022-08-09T03:42:38.357Z,1.20
2022-08-09T03:42:50.375Z,1.20
2022-08-09T03:43:02.424Z,1.30
2022-08-09T03:43:14.629Z,1.30
2022-08-09T03:43:32.143Z,1.50
2022-08-09T03:44:03.454Z,1.70
2022-08-09T03:44:18.716Z,1.50
2022-08-09T03:44:32.084Z,1.60
2022-08-09T03:44:44.070Z,1.63
2022-08-09T03:44:57.029Z,1.60
2022-08-09T03:45:09.681Z,1.45
2022-08-09T03:46:03.949Z,1.38
2022-08-09T03:46:04.788Z,1.42
2022-08-09T03:46:27.417Z,1.52
2022-08-09T03:46:42.211Z,1.60
2022-08-09T03:46:54.480Z,1.50
2022-08-09T03:47:06.494Z,1.40
2022-08-09T03:47:19.207Z,1.40
2022-08-09T03:47:31.236Z,1.40
2022-08-09T03:47:48.680Z,1.50
2022-08-09T03:48:00.616Z,1.50
2022-08-09T03:48:18.969Z,1.52
2022-08-09T03:48:34.011Z,1.45
2022-08-09T03:48:52.813Z,1.40
2022-08-09T03:49:08.795Z,1.60
2022-08-09T03:49:24.085Z,1.63
2022-08-09T03:49:58.488Z,1.55
2022-08-09T03:50:12.278Z,1.58
2022-08-09T03:50:27.851Z,1.50
2022-08-09T03:50:44.365Z,1.52
2022-08-09T03:50:57.473Z,1.50
2022-08-09T03:51:44.003Z,1.60
2022-08-09T03:51:57.123Z,1.50
2022-08-09T03:52:11.930Z,1.60
2022-08-09T03:52:28.000Z,1.60
2022-08-09T03:52:42.452Z,1.42
2022-08-09T03:53:01.579Z,1.48
2022-08-09T03:53:16.513Z,1.80
2022-08-09T03:53:37.649Z,1.58
2022-08-09T03:53:50.609Z,1.40
2022-08-09T03:54:03.144Z,1.50
2022-08-09T03:54:15.876Z,1.50
2022-08-09T03:54:38.585Z,1.50
2022-08-09T03:54:53.403Z,1.65
2022-08-09T03:55:09.834Z,1.60
2022-08-09T03:55:22.318Z,1.60
2022-08-09T03:55:40.901Z,1.50
2022-08-09T03:55:54.681Z,1.50
2022-08-09T03:56:08.056Z,1.55
2022-08-09T03:56:20.669Z,1.60
2022-08-09T03:56:33.072Z,1.60
2022-08-09T03:56:46.833Z,1.42
2022-08-09T03:57:18.283Z,1.50
2022-08-09T03:57:32.696Z,1.50
2022-08-09T03:58:03.306Z,1.50
2022-08-09T03:58:22.935Z,1.40
2022-08-09T03:58:35.132Z,1.42
2022-08-09T03:58:47.129Z,1.50
2022-08-09T03:59:02.434Z,1.50
2022-08-09T03:59:27.044Z,1.40
2022-08-09T03:59:52.941Z,1.60
2022-08-09T04:00:08.091Z,1.58
2022-08-09T04:00:21.195Z,1.48
2022-08-09T04:00:35.469Z,1.40
2022-08-09T04:00:49.187Z,1.30
2022-08-09T04:01:01.644Z,1.40
2022-08-09T04:01:14.032Z,1.35
2022-08-09T04:01:29.157Z,1.50
2022-08-09T04:01:45.843Z,1.70
2022-08-09T04:01:59.227Z,1.60
2022-08-09T04:02:11.437Z,1.50
2022-08-09T04:02:29.052Z,1.50
2022-08-09T04:02:44.874Z,1.50
2022-08-09T04:02:58.954Z,1.30
2022-08-09T04:03:19.868Z,1.38
2022-08-09T04:04:00.436Z,1.38
2022-08-09T04:04:15.322Z,1.70
2022-08-09T04:04:32.577Z,1.60
2022-08-09T04:04:48.300Z,1.70
2022-08-09T04:05:05.957Z,1.70
2022-08-09T04:05:27.382Z,1.60
2022-08-09T04:05:40.691Z,1.42
2022-08-09T04:05:53.069Z,1.50
2022-08-09T04:06:09.271Z,1.52
2022-08-09T04:06:23.826Z,1.60
2022-08-09T04:06:36.487Z,1.52
2022-08-09T04:06:49.958Z,1.42
2022-08-09T04:07:03.059Z,1.48
2022-08-09T04:07:15.993Z,1.45
2022-08-09T04:07:51.136Z,1.60
2022-08-09T04:08:01.339Z,1.80
2022-08-09T04:08:13.482Z,1.77
2022-08-09T04:08:29.022Z,1.48
2022-08-09T04:08:42.015Z,1.40
2022-08-09T04:09:02.613Z,1.55
2022-08-09T04:09:47.429Z,1.67
2022-08-09T04:09:57.899Z,1.58
2022-08-09T04:10:09.978Z,1.60
2022-08-09T04:10:29.336Z,1.70
2022-08-09T04:10:42.140Z,1.80
2022-08-09T04:11:01.451Z,1.52
2022-08-09T04:11:14.137Z,1.50
2022-08-09T04:11:26.680Z,1.52
2022-08-09T04:11:59.398Z,1.60
2022-08-09T04:12:40.393Z,1.58
2022-08-09T04:12:52.720Z,1.40
2022-08-09T04:13:11.354Z,1.45
2022-08-09T04:13:26.424Z,1.63
2022-08-09T04:14:53.734Z,1.60
2022-08-09T04:14:59.143Z,1.60
2022-08-09T04:15:02.042Z,1.45
2022-08-09T04:15:40.455Z,1.60
2022-08-09T04:16:20.943Z,1.40
2022-08-09T04:16:28.230Z,1.60
2022-08-09T04:16:40.464Z,1.75
2022-08-09T04:16:52.374Z,1.90
2022-08-09T04:17:09.277Z,1.63
2022-08-09T04:17:21.963Z,1.50
2022-08-09T04:17:34.021Z,1.52
2022-08-09T04:17:47.364Z,1.50
2022-08-09T04:17:59.507Z,1.35
2022-08-09T04:18:17.832Z,1.50
2022-08-09T04:18:30.225Z,1.70
2022-08-09T04:18:44.113Z,1.80
2022-08-09T04:18:57.831Z,1.80
2022-08-09T04:19:10.946Z,1.55
2022-08-09T04:19:42.627Z,1.60
2022-08-09T04:19:55.993Z,1.58
2022-08-09T04:20:10.225Z,1.50
2022-08-09T04:20:22.532Z,1.70
2022-08-09T04:20:35.425Z,1.60
2022-08-09T04:20:49.236Z,1.50
2022-08-09T04:21:01.214Z,1.45
2022-08-09T04:21:15.883Z,1.40
2022-08-09T04:21:29.255Z,1.48